Halesworth, United Kingdom
Current Conditions -  °F | °C
As of 5:20 PM on Wednesday 26 Nov 2014 (Local Time) from EGSD Reporting Station
Light Rain Light Rain  
Wind Chill: 10°   Ceiling: 400
Heat Index: 10°   Visibility: 2.5mi
Dew Point:   Wind: 5mph
Humidity: 94%   Direction: 120°ESE
Pressure: 29.8"   Gusts: NA
Location:  52.35°N, 1.5°E
Report Text: EGSD 261720Z 12004KT 4000 -RA BR SCT002 BKN004 10/09 Q1009
Loading
Personal Weather Stations






























Interactive Weather Map New forecast layout! Learn more

10-Day Weather Forecast

Advertisements
Track Severe Weather on mobile